EGCCEGNO

Guest
Details From EGCC - Manchester
To EGNO - Warton
Flight Number -
Tags Generated
Created
Modified
Stats Distance 32 nm / 60 km
Max Altitude 0 ft / 0 m
Waypoints 2
Social Downloads 0
Likes 0
Share VATSIM

Download

Looking for another format? Having issues loading an existing format? Contact us
Advertisement - Login to hide

Notes

Generated

Route

EGCC EGNO

ID Type Via Altitude Latitude Longitude Leg Dist Tot Dist Heading (true) Name
O EGCC APT - 0 ft / 0 m 53.33197˚ -2.31066˚ - 0 nm - -
O EGNO APT - 0 ft / 0 m 53.74544˚ -2.89709˚ 32 nm 32 nm 320° / 320° -

Altitude Profile

Advertisement - Login to hide

EGCC

Details ICAO EGCC (MAN)
Name Manchester Intl
Region United Kingdom
Timezone Europe/London (UTC+1.0)
Stats Elevation 257 ft / 78 m (AMSL)
Location 53.347141° -2.283954°
Runways 2
Magnetic Variation 1.392° W

METAR

EGCC 231920Z AUTO 06005KT 9999 NCD 17/08 Q1025 NOSIG

Decode

TAF

TAF EGCC 231659Z 2318/2424 05006KT CAVOK

Decode

Departure Runways

ID Width Length Bearing (true) Bearing (mag) Surface Threshold Offset Overrun Length
05L 151 ft / 46 m 9,981 ft / 3,042 m 50.99° 52.38° Asphalt 1,401 ft / 427 m 0 ft / 0 m
05R 151 ft / 46 m 9,952 ft / 3,033 m 50.97° 52.36° Asphalt 0 ft / 0 m 26 ft / 8 m
23L 151 ft / 46 m 9,952 ft / 3,033 m 231.00° 232.39° Asphalt 561 ft / 171 m 0 ft / 0 m
23R 151 ft / 46 m 9,981 ft / 3,042 m 231.02° 232.41° Asphalt 597 ft / 182 m 0 ft / 0 m

EGNO

Details ICAO EGNO
Name Warton Aerodrome
Region United Kingdom
Timezone Europe/London (UTC+1.0)
Stats Elevation 55 ft / 17 m (AMSL)
Location 53.744940° -2.883840°
Runways 1
Magnetic Variation 1.680° W

METAR

EGNO 231850Z 07012KT CAVOK 17/11 Q1025

Decode

TAF

Not found

Destination Runways

ID Width Length Bearing (true) Bearing (mag) Surface Threshold Offset Overrun Length
08 151 ft / 46 m 7,906 ft / 2,410 m 71.11° 72.79° Asphalt 190 ft / 58 m 0 ft / 0 m
26 151 ft / 46 m 7,906 ft / 2,410 m 251.14° 252.82° Asphalt 0 ft / 0 m 0 ft / 0 m

Approach Navaids

Runway Type Ident Frequency Range Bearing (true) Bearing (mag) Slope Elevation
26 Localiser IWQ 109.90 MHz 18 nm / 33 km 251.10° 252.78° - 55 ft / 17 m (AMSL)
26 Glidescope IWQ 109.90 MHz 10 nm / 19 km 251.13° 252.80° 3.00° 55 ft / 17 m (AMSL)
26 DME IWQ 109.90 MHz 18 nm / 33 km - - - 55 ft / 17 m (AMSL)